sensor_id;sensor_type;location;lat;lon;timestamp;P1;durP1;ratioP1;P2;durP2;ratioP2
3171;SDS011;1597;51.572;6.992;2022-07-01T00:00:50;5.43;;;4.93;;
3171;SDS011;1597;51.572;6.992;2022-07-01T00:03:16;7.33;;;6.43;;
3171;SDS011;1597;51.572;6.992;2022-07-01T00:05:42;10.20;;;6.60;;
3171;SDS011;1597;51.572;6.992;2022-07-01T00:08:08;10.87;;;6.07;;
3171;SDS011;1597;51.572;6.992;2022-07-01T00:10:34;6.50;;;5.27;;
3171;SDS011;1597;51.572;6.992;2022-07-01T00:13:02;8.50;;;7.60;;
3171;SDS011;1597;51.572;6.992;2022-07-01T00:15:29;8.40;;;6.47;;
3171;SDS011;1597;51.572;6.992;2022-07-01T00:17:55;7.37;;;6.67;;
3171;SDS011;1597;51.572;6.992;2022-07-01T00:20:21;8.20;;;7.03;;
3171;SDS011;1597;51.572;6.992;2022-07-01T00:22:47;8.63;;;7.50;;
3171;SDS011;1597;51.572;6.992;2022-07-01T00:25:12;4.83;;;4.40;;
3171;SDS011;1597;51.572;6.992;2022-07-01T00:27:39;11.83;;;8.07;;
3171;SDS011;1597;51.572;6.992;2022-07-01T00:30:06;10.17;;;7.97;;
3171;SDS011;1597;51.572;6.992;2022-07-01T00:32:35;5.50;;;5.00;;
3171;SDS011;1597;51.572;6.992;2022-07-01T00:35:03;9.27;;;8.40;;
3171;SDS011;1597;51.572;6.992;2022-07-01T00:37:29;7.50;;;6.63;;
3171;SDS011;1597;51.572;6.992;2022-07-01T00:39:55;6.30;;;5.70;;
3171;SDS011;1597;51.572;6.992;2022-07-01T00:42:21;6.90;;;6.13;;
3171;SDS011;1597;51.572;6.992;2022-07-01T00:44:47;5.80;;;5.30;;
3171;SDS011;1597;51.572;6.992;2022-07-01T00:47:13;7.07;;;6.37;;
3171;SDS011;1597;51.572;6.992;2022-07-01T00:49:39;10.97;;;9.57;;
3171;SDS011;1597;51.572;6.992;2022-07-01T00:52:06;11.37;;;10.03;;
3171;SDS011;1597;51.572;6.992;2022-07-01T00:54:34;12.47;;;10.40;;
3171;SDS011;1597;51.572;6.992;2022-07-01T00:57:08;11.80;;;10.03;;
3171;SDS011;1597;51.572;6.992;2022-07-01T00:59:38;12.80;;;11.40;;
3171;SDS011;1597;51.572;6.992;2022-07-01T01:02:05;14.07;;;10.80;;
3171;SDS011;1597;51.572;6.992;2022-07-01T01:04:32;11.07;;;8.63;;
3171;SDS011;1597;51.572;6.992;2022-07-01T01:07:00;12.20;;;10.40;;
3171;SDS011;1597;51.572;6.992;2022-07-01T01:09:28;17.13;;;12.67;;
3171;SDS011;1597;51.572;6.992;2022-07-01T01:11:58;12.37;;;9.50;;
3171;SDS011;1597;51.572;6.992;2022-07-01T01:17:14;18.20;;;12.77;;
3171;SDS011;1597;51.572;6.992;2022-07-01T01:19:42;9.17;;;6.83;;
3171;SDS011;1597;51.572;6.992;2022-07-01T01:22:09;15.20;;;9.87;;
3171;SDS011;1597;51.572;6.992;2022-07-01T01:24:36;8.30;;;7.07;;
3171;SDS011;1597;51.572;6.992;2022-07-01T01:27:06;11.00;;;8.90;;
3171;SDS011;1597;51.572;6.992;2022-07-01T01:29:32;23.80;;;17.10;;
3171;SDS011;1597;51.572;6.992;2022-07-01T01:32:00;21.40;;;17.00;;
3171;SDS011;1597;51.572;6.992;2022-07-01T01:34:26;17.67;;;13.70;;
3171;SDS011;1597;51.572;6.992;2022-07-01T01:36:53;21.50;;;16.23;;
3171;SDS011;1597;51.572;6.992;2022-07-01T01:39:19;15.53;;;13.47;;
3171;SDS011;1597;51.572;6.992;2022-07-01T01:41:45;26.80;;;18.20;;
3171;SDS011;1597;51.572;6.992;2022-07-01T01:44:12;27.33;;;20.53;;
3171;SDS011;1597;51.572;6.992;2022-07-01T01:46:38;24.20;;;18.20;;
3171;SDS011;1597;51.572;6.992;2022-07-01T01:49:05;16.80;;;12.97;;
3171;SDS011;1597;51.572;6.992;2022-07-01T01:51:32;25.10;;;19.83;;
3171;SDS011;1597;51.572;6.992;2022-07-01T01:53:59;16.80;;;15.00;;
3171;SDS011;1597;51.572;6.992;2022-07-01T01:56:25;20.63;;;16.73;;
3171;SDS011;1597;51.572;6.992;2022-07-01T01:58:52;21.47;;;17.70;;
3171;SDS011;1597;51.572;6.992;2022-07-01T02:01:18;10.80;;;9.17;;
3171;SDS011;1597;51.572;6.992;2022-07-01T02:03:46;19.43;;;15.47;;
3171;SDS011;1597;51.572;6.992;2022-07-01T02:06:14;17.80;;;14.33;;
3171;SDS011;1597;51.572;6.992;2022-07-01T02:08:42;19.40;;;15.90;;
3171;SDS011;1597;51.572;6.992;2022-07-01T02:11:09;14.43;;;12.37;;
3171;SDS011;1597;51.572;6.992;2022-07-01T02:13:35;16.37;;;13.30;;
3171;SDS011;1597;51.572;6.992;2022-07-01T02:16:02;17.83;;;13.50;;
3171;SDS011;1597;51.572;6.992;2022-07-01T02:18:29;17.00;;;13.80;;
3171;SDS011;1597;51.572;6.992;2022-07-01T02:20:57;10.67;;;8.60;;
3171;SDS011;1597;51.572;6.992;2022-07-01T02:23:24;11.70;;;9.97;;
3171;SDS011;1597;51.572;6.992;2022-07-01T02:25:50;12.70;;;11.30;;
3171;SDS011;1597;51.572;6.992;2022-07-01T02:28:16;15.23;;;12.50;;
3171;SDS011;1597;51.572;6.992;2022-07-01T02:30:42;10.23;;;9.23;;
3171;SDS011;1597;51.572;6.992;2022-07-01T02:33:08;10.30;;;8.37;;
3171;SDS011;1597;51.572;6.992;2022-07-01T02:35:36;8.57;;;7.57;;
3171;SDS011;1597;51.572;6.992;2022-07-01T02:38:04;10.47;;;9.37;;
3171;SDS011;1597;51.572;6.992;2022-07-01T02:40:31;14.00;;;11.20;;
3171;SDS011;1597;51.572;6.992;2022-07-01T02:42:59;13.60;;;10.93;;
3171;SDS011;1597;51.572;6.992;2022-07-01T02:45:25;12.90;;;11.17;;
3171;SDS011;1597;51.572;6.992;2022-07-01T02:47:51;11.43;;;9.93;;
3171;SDS011;1597;51.572;6.992;2022-07-01T02:50:17;11.77;;;9.03;;
3171;SDS011;1597;51.572;6.992;2022-07-01T02:52:44;12.90;;;8.70;;
3171;SDS011;1597;51.572;6.992;2022-07-01T02:55:11;14.87;;;10.60;;
3171;SDS011;1597;51.572;6.992;2022-07-01T02:57:42;13.40;;;9.57;;
3171;SDS011;1597;51.572;6.992;2022-07-01T03:00:10;8.97;;;8.07;;
3171;SDS011;1597;51.572;6.992;2022-07-01T03:02:38;14.50;;;9.90;;
3171;SDS011;1597;51.572;6.992;2022-07-01T03:05:05;10.23;;;7.43;;
3171;SDS011;1597;51.572;6.992;2022-07-01T03:07:33;15.03;;;10.27;;
3171;SDS011;1597;51.572;6.992;2022-07-01T03:10:05;16.40;;;11.37;;
3171;SDS011;1597;51.572;6.992;2022-07-01T03:12:33;12.13;;;10.27;;
3171;SDS011;1597;51.572;6.992;2022-07-01T03:15:09;13.80;;;9.90;;
3171;SDS011;1597;51.572;6.992;2022-07-01T03:17:38;14.67;;;8.73;;
3171;SDS011;1597;51.572;6.992;2022-07-01T03:20:13;14.70;;;10.80;;
3171;SDS011;1597;51.572;6.992;2022-07-01T03:22:42;17.90;;;10.90;;
3171;SDS011;1597;51.572;6.992;2022-07-01T03:25:09;12.80;;;9.97;;
3171;SDS011;1597;51.572;6.992;2022-07-01T03:27:36;14.90;;;10.60;;
3171;SDS011;1597;51.572;6.992;2022-07-01T03:30:03;12.27;;;9.53;;
3171;SDS011;1597;51.572;6.992;2022-07-01T03:32:31;13.83;;;11.10;;
3171;SDS011;1597;51.572;6.992;2022-07-01T03:34:57;17.30;;;10.93;;
3171;SDS011;1597;51.572;6.992;2022-07-01T03:37:23;15.13;;;9.27;;
3171;SDS011;1597;51.572;6.992;2022-07-01T03:39:49;13.70;;;9.40;;
3171;SDS011;1597;51.572;6.992;2022-07-01T03:42:15;15.50;;;11.17;;
3171;SDS011;1597;51.572;6.992;2022-07-01T03:44:42;11.37;;;9.30;;
3171;SDS011;1597;51.572;6.992;2022-07-01T03:47:09;7.43;;;6.70;;
3171;SDS011;1597;51.572;6.992;2022-07-01T03:49:35;10.47;;;7.77;;
3171;SDS011;1597;51.572;6.992;2022-07-01T03:52:02;14.17;;;11.07;;
3171;SDS011;1597;51.572;6.992;2022-07-01T03:54:28;7.50;;;6.43;;
3171;SDS011;1597;51.572;6.992;2022-07-01T03:57:04;11.43;;;8.50;;
3171;SDS011;1597;51.572;6.992;2022-07-01T03:59:36;9.13;;;8.00;;
3171;SDS011;1597;51.572;6.992;2022-07-01T04:02:05;16.57;;;10.47;;
3171;SDS011;1597;51.572;6.992;2022-07-01T04:04:32;11.50;;;8.63;;
3171;SDS011;1597;51.572;6.992;2022-07-01T04:07:00;12.67;;;9.30;;
3171;SDS011;1597;51.572;6.992;2022-07-01T04:09:28;9.93;;;8.53;;
3171;SDS011;1597;51.572;6.992;2022-07-01T04:11:55;12.17;;;10.30;;
3171;SDS011;1597;51.572;6.992;2022-07-01T04:14:23;10.60;;;8.87;;
3171;SDS011;1597;51.572;6.992;2022-07-01T04:16:49;11.60;;;9.33;;
3171;SDS011;1597;51.572;6.992;2022-07-01T04:19:16;11.50;;;9.60;;
3171;SDS011;1597;51.572;6.992;2022-07-01T04:21:43;8.33;;;6.70;;
3171;SDS011;1597;51.572;6.992;2022-07-01T04:24:27;8.50;;;7.70;;
3171;SDS011;1597;51.572;6.992;2022-07-01T04:26:55;11.83;;;10.23;;
3171;SDS011;1597;51.572;6.992;2022-07-01T04:29:21;13.97;;;10.37;;
3171;SDS011;1597;51.572;6.992;2022-07-01T04:31:47;10.90;;;9.37;;
3171;SDS011;1597;51.572;6.992;2022-07-01T04:34:13;13.97;;;8.10;;
3171;SDS011;1597;51.572;6.992;2022-07-01T04:36:39;7.57;;;6.77;;
3171;SDS011;1597;51.572;6.992;2022-07-01T04:39:05;10.80;;;8.67;;
3171;SDS011;1597;51.572;6.992;2022-07-01T04:41:31;7.67;;;6.97;;
3171;SDS011;1597;51.572;6.992;2022-07-01T04:44:33;13.13;;;10.90;;
3171;SDS011;1597;51.572;6.992;2022-07-01T04:47:01;14.00;;;10.40;;
3171;SDS011;1597;51.572;6.992;2022-07-01T04:49:29;10.90;;;8.43;;
3171;SDS011;1597;51.572;6.992;2022-07-01T04:51:56;8.10;;;7.30;;
3171;SDS011;1597;51.572;6.992;2022-07-01T04:54:23;12.93;;;9.10;;
3171;SDS011;1597;51.572;6.992;2022-07-01T04:56:50;7.17;;;6.30;;
3171;SDS011;1597;51.572;6.992;2022-07-01T04:59:17;11.13;;;7.10;;
3171;SDS011;1597;51.572;6.992;2022-07-01T05:01:45;9.57;;;8.63;;
3171;SDS011;1597;51.572;6.992;2022-07-01T05:04:14;13.30;;;9.20;;
3171;SDS011;1597;51.572;6.992;2022-07-01T05:06:39;13.07;;;10.23;;
3171;SDS011;1597;51.572;6.992;2022-07-01T05:09:05;9.17;;;8.40;;
3171;SDS011;1597;51.572;6.992;2022-07-01T05:11:31;12.50;;;9.77;;
3171;SDS011;1597;51.572;6.992;2022-07-01T05:13:58;8.93;;;8.13;;
3171;SDS011;1597;51.572;6.992;2022-07-01T05:16:24;13.53;;;9.80;;
3171;SDS011;1597;51.572;6.992;2022-07-01T05:18:50;13.30;;;10.70;;
3171;SDS011;1597;51.572;6.992;2022-07-01T05:21:34;12.27;;;10.97;;
3171;SDS011;1597;51.572;6.992;2022-07-01T05:24:18;7.30;;;6.37;;
3171;SDS011;1597;51.572;6.992;2022-07-01T05:26:44;14.07;;;10.23;;
3171;SDS011;1597;51.572;6.992;2022-07-01T05:29:10;13.90;;;10.40;;
3171;SDS011;1597;51.572;6.992;2022-07-01T05:31:37;11.47;;;9.17;;
3171;SDS011;1597;51.572;6.992;2022-07-01T05:34:03;10.40;;;9.47;;
3171;SDS011;1597;51.572;6.992;2022-07-01T05:36:29;9.30;;;8.30;;
3171;SDS011;1597;51.572;6.992;2022-07-01T05:38:57;9.00;;;8.20;;
3171;SDS011;1597;51.572;6.992;2022-07-01T05:41:24;9.33;;;6.93;;
3171;SDS011;1597;51.572;6.992;2022-07-01T05:43:51;8.60;;;7.70;;
3171;SDS011;1597;51.572;6.992;2022-07-01T05:46:18;11.87;;;9.40;;
3171;SDS011;1597;51.572;6.992;2022-07-01T05:48:45;11.27;;;8.40;;
3171;SDS011;1597;51.572;6.992;2022-07-01T05:51:11;8.93;;;8.07;;
3171;SDS011;1597;51.572;6.992;2022-07-01T05:53:37;9.23;;;8.27;;
3171;SDS011;1597;51.572;6.992;2022-07-01T05:56:04;7.90;;;6.70;;
3171;SDS011;1597;51.572;6.992;2022-07-01T05:58:30;14.47;;;10.73;;
3171;SDS011;1597;51.572;6.992;2022-07-01T06:00:57;16.03;;;12.23;;
3171;SDS011;1597;51.572;6.992;2022-07-01T06:03:23;12.77;;;11.47;;
3171;SDS011;1597;51.572;6.992;2022-07-01T06:05:49;13.77;;;11.20;;
3171;SDS011;1597;51.572;6.992;2022-07-01T06:08:15;9.93;;;8.90;;
3171;SDS011;1597;51.572;6.992;2022-07-01T06:10:41;13.73;;;11.50;;
3171;SDS011;1597;51.572;6.992;2022-07-01T06:13:07;12.80;;;9.37;;
3171;SDS011;1597;51.572;6.992;2022-07-01T06:15:34;14.53;;;7.80;;
3171;SDS011;1597;51.572;6.992;2022-07-01T06:18:00;9.37;;;7.60;;
3171;SDS011;1597;51.572;6.992;2022-07-01T06:20:26;15.90;;;9.73;;
3171;SDS011;1597;51.572;6.992;2022-07-01T06:22:55;8.40;;;6.90;;
3171;SDS011;1597;51.572;6.992;2022-07-01T06:25:22;8.57;;;7.77;;
3171;SDS011;1597;51.572;6.992;2022-07-01T06:27:48;12.13;;;10.70;;
3171;SDS011;1597;51.572;6.992;2022-07-01T06:30:14;8.93;;;7.00;;
3171;SDS011;1597;51.572;6.992;2022-07-01T06:32:40;12.70;;;10.70;;
3171;SDS011;1597;51.572;6.992;2022-07-01T06:35:06;9.53;;;7.80;;
3171;SDS011;1597;51.572;6.992;2022-07-01T06:37:33;11.80;;;9.20;;
3171;SDS011;1597;51.572;6.992;2022-07-01T06:40:01;9.33;;;8.33;;
3171;SDS011;1597;51.572;6.992;2022-07-01T06:42:30;20.87;;;10.47;;
3171;SDS011;1597;51.572;6.992;2022-07-01T06:44:58;10.33;;;8.20;;
3171;SDS011;1597;51.572;6.992;2022-07-01T06:47:24;13.80;;;9.50;;
3171;SDS011;1597;51.572;6.992;2022-07-01T06:49:50;11.73;;;9.87;;
3171;SDS011;1597;51.572;6.992;2022-07-01T06:52:16;14.07;;;12.57;;
3171;SDS011;1597;51.572;6.992;2022-07-01T06:54:42;12.30;;;11.00;;
3171;SDS011;1597;51.572;6.992;2022-07-01T06:57:07;22.07;;;16.80;;
3171;SDS011;1597;51.572;6.992;2022-07-01T06:59:33;17.57;;;15.77;;
3171;SDS011;1597;51.572;6.992;2022-07-01T07:02:00;34.13;;;25.97;;
3171;SDS011;1597;51.572;6.992;2022-07-01T07:04:26;20.50;;;17.80;;
3171;SDS011;1597;51.572;6.992;2022-07-01T07:06:52;16.90;;;12.97;;
3171;SDS011;1597;51.572;6.992;2022-07-01T07:09:17;16.70;;;14.87;;
3171;SDS011;1597;51.572;6.992;2022-07-01T07:11:43;24.43;;;17.60;;
3171;SDS011;1597;51.572;6.992;2022-07-01T07:14:09;17.50;;;15.57;;
3171;SDS011;1597;51.572;6.992;2022-07-01T07:16:35;15.93;;;14.33;;
3171;SDS011;1597;51.572;6.992;2022-07-01T07:19:01;17.47;;;14.80;;
3171;SDS011;1597;51.572;6.992;2022-07-01T07:21:27;22.20;;;15.90;;
3171;SDS011;1597;51.572;6.992;2022-07-01T07:23:53;19.50;;;16.10;;
3171;SDS011;1597;51.572;6.992;2022-07-01T07:26:19;15.50;;;14.10;;
3171;SDS011;1597;51.572;6.992;2022-07-01T07:28:46;15.50;;;12.97;;
3171;SDS011;1597;51.572;6.992;2022-07-01T07:31:12;15.80;;;13.80;;
3171;SDS011;1597;51.572;6.992;2022-07-01T07:33:38;11.83;;;10.73;;
3171;SDS011;1597;51.572;6.992;2022-07-01T07:36:04;11.80;;;10.60;;
3171;SDS011;1597;51.572;6.992;2022-07-01T07:38:33;13.73;;;12.30;;
3171;SDS011;1597;51.572;6.992;2022-07-01T07:41:04;14.60;;;11.27;;
3171;SDS011;1597;51.572;6.992;2022-07-01T07:43:33;9.50;;;8.60;;
3171;SDS011;1597;51.572;6.992;2022-07-01T07:46:02;13.90;;;12.13;;
3171;SDS011;1597;51.572;6.992;2022-07-01T07:48:30;16.43;;;14.77;;
3171;SDS011;1597;51.572;6.992;2022-07-01T07:50:56;68.90;;;54.03;;
3171;SDS011;1597;51.572;6.992;2022-07-01T07:53:23;18.37;;;15.40;;
3171;SDS011;1597;51.572;6.992;2022-07-01T07:55:52;14.40;;;12.30;;
3171;SDS011;1597;51.572;6.992;2022-07-01T07:58:18;21.20;;;13.37;;
3171;SDS011;1597;51.572;6.992;2022-07-01T08:00:44;13.43;;;11.63;;
3171;SDS011;1597;51.572;6.992;2022-07-01T08:03:10;14.97;;;13.23;;
3171;SDS011;1597;51.572;6.992;2022-07-01T08:05:37;17.10;;;15.30;;
3171;SDS011;1597;51.572;6.992;2022-07-01T08:08:03;15.17;;;13.60;;
3171;SDS011;1597;51.572;6.992;2022-07-01T08:10:30;17.97;;;13.13;;
3171;SDS011;1597;51.572;6.992;2022-07-01T08:12:55;18.63;;;14.00;;
3171;SDS011;1597;51.572;6.992;2022-07-01T08:15:22;14.17;;;12.60;;
3171;SDS011;1597;51.572;6.992;2022-07-01T08:17:48;15.50;;;13.47;;
3171;SDS011;1597;51.572;6.992;2022-07-01T08:20:14;13.17;;;11.83;;
3171;SDS011;1597;51.572;6.992;2022-07-01T08:22:41;14.03;;;12.30;;
3171;SDS011;1597;51.572;6.992;2022-07-01T08:25:07;11.47;;;10.37;;
3171;SDS011;1597;51.572;6.992;2022-07-01T08:27:34;11.87;;;10.70;;
3171;SDS011;1597;51.572;6.992;2022-07-01T08:30:00;15.30;;;11.07;;
3171;SDS011;1597;51.572;6.992;2022-07-01T08:32:27;13.30;;;11.93;;
3171;SDS011;1597;51.572;6.992;2022-07-01T08:34:53;11.93;;;10.73;;
3171;SDS011;1597;51.572;6.992;2022-07-01T08:37:19;11.03;;;9.93;;
3171;SDS011;1597;51.572;6.992;2022-07-01T08:39:45;11.10;;;9.33;;
3171;SDS011;1597;51.572;6.992;2022-07-01T08:42:11;9.30;;;7.97;;
3171;SDS011;1597;51.572;6.992;2022-07-01T08:44:37;11.30;;;7.60;;
3171;SDS011;1597;51.572;6.992;2022-07-01T08:47:03;7.53;;;6.83;;
3171;SDS011;1597;51.572;6.992;2022-07-01T08:49:30;6.50;;;5.90;;
3171;SDS011;1597;51.572;6.992;2022-07-01T08:51:56;7.60;;;6.90;;
3171;SDS011;1597;51.572;6.992;2022-07-01T08:54:22;11.20;;;7.40;;
3171;SDS011;1597;51.572;6.992;2022-07-01T08:56:48;8.10;;;7.30;;
3171;SDS011;1597;51.572;6.992;2022-07-01T08:59:21;7.53;;;6.93;;
3171;SDS011;1597;51.572;6.992;2022-07-01T09:02:00;7.73;;;7.00;;
3171;SDS011;1597;51.572;6.992;2022-07-01T09:04:30;7.13;;;6.43;;
3171;SDS011;1597;51.572;6.992;2022-07-01T09:07:02;5.83;;;5.33;;
3171;SDS011;1597;51.572;6.992;2022-07-01T09:09:38;5.87;;;5.27;;
3171;SDS011;1597;51.572;6.992;2022-07-01T09:12:07;7.93;;;5.40;;
3171;SDS011;1597;51.572;6.992;2022-07-01T09:14:34;7.07;;;5.80;;
3171;SDS011;1597;51.572;6.992;2022-07-01T09:17:01;8.13;;;5.77;;
3171;SDS011;1597;51.572;6.992;2022-07-01T09:19:31;7.30;;;5.80;;
3171;SDS011;1597;51.572;6.992;2022-07-01T09:22:03;5.80;;;4.80;;
3171;SDS011;1597;51.572;6.992;2022-07-01T09:24:34;5.33;;;4.93;;
3171;SDS011;1597;51.572;6.992;2022-07-01T09:27:09;6.20;;;5.60;;
3171;SDS011;1597;51.572;6.992;2022-07-01T09:29:48;7.00;;;5.80;;
3171;SDS011;1597;51.572;6.992;2022-07-01T09:32:19;6.27;;;5.67;;
3171;SDS011;1597;51.572;6.992;2022-07-01T09:34:51;12.00;;;6.27;;
3171;SDS011;1597;51.572;6.992;2022-07-01T09:37:18;7.43;;;6.50;;
3171;SDS011;1597;51.572;6.992;2022-07-01T09:39:47;6.73;;;6.07;;
3171;SDS011;1597;51.572;6.992;2022-07-01T09:42:16;6.00;;;5.40;;
3171;SDS011;1597;51.572;6.992;2022-07-01T09:47:51;5.77;;;4.60;;
3171;SDS011;1597;51.572;6.992;2022-07-01T09:50:17;9.20;;;4.73;;
3171;SDS011;1597;51.572;6.992;2022-07-01T09:52:43;7.00;;;5.70;;
3171;SDS011;1597;51.572;6.992;2022-07-01T09:55:09;5.03;;;4.30;;
3171;SDS011;1597;51.572;6.992;2022-07-01T09:57:37;4.40;;;4.00;;
3171;SDS011;1597;51.572;6.992;2022-07-01T10:00:04;6.30;;;4.67;;
3171;SDS011;1597;51.572;6.992;2022-07-01T10:02:31;7.00;;;4.90;;
3171;SDS011;1597;51.572;6.992;2022-07-01T10:05:04;6.13;;;5.53;;
3171;SDS011;1597;51.572;6.992;2022-07-01T10:13:07;8.00;;;4.43;;
3171;SDS011;1597;51.572;6.992;2022-07-01T10:15:39;4.63;;;3.40;;
3171;SDS011;1597;51.572;6.992;2022-07-01T10:18:06;5.30;;;3.90;;
3171;SDS011;1597;51.572;6.992;2022-07-01T10:20:48;5.13;;;3.53;;
3171;SDS011;1597;51.572;6.992;2022-07-01T10:23:16;8.50;;;4.77;;
3171;SDS011;1597;51.572;6.992;2022-07-01T10:25:53;5.33;;;3.33;;
3171;SDS011;1597;51.572;6.992;2022-07-01T10:28:40;4.07;;;3.43;;
3171;SDS011;1597;51.572;6.992;2022-07-01T10:31:12;3.80;;;3.00;;
3171;SDS011;1597;51.572;6.992;2022-07-01T10:33:56;3.73;;;2.93;;
3171;SDS011;1597;51.572;6.992;2022-07-01T10:36:26;9.37;;;3.50;;
3171;SDS011;1597;51.572;6.992;2022-07-01T10:41:30;24.20;;;5.20;;
3171;SDS011;1597;51.572;6.992;2022-07-01T10:43:58;5.53;;;3.53;;
3171;SDS011;1597;51.572;6.992;2022-07-01T10:52:13;3.23;;;2.40;;
3171;SDS011;1597;51.572;6.992;2022-07-01T11:02:36;2.80;;;2.60;;
3171;SDS011;1597;51.572;6.992;2022-07-01T11:05:10;3.93;;;3.53;;
3171;SDS011;1597;51.572;6.992;2022-07-01T11:07:40;4.73;;;2.77;;
3171;SDS011;1597;51.572;6.992;2022-07-01T11:10:13;3.87;;;2.70;;
3171;SDS011;1597;51.572;6.992;2022-07-01T11:12:44;4.70;;;2.67;;
3171;SDS011;1597;51.572;6.992;2022-07-01T11:15:13;5.60;;;2.70;;
3171;SDS011;1597;51.572;6.992;2022-07-01T11:17:44;3.30;;;2.40;;
3171;SDS011;1597;51.572;6.992;2022-07-01T11:20:12;3.17;;;2.23;;
3171;SDS011;1597;51.572;6.992;2022-07-01T11:22:38;3.73;;;2.77;;
3171;SDS011;1597;51.572;6.992;2022-07-01T11:25:06;6.07;;;2.30;;
3171;SDS011;1597;51.572;6.992;2022-07-01T11:27:37;5.27;;;2.87;;
3171;SDS011;1597;51.572;6.992;2022-07-01T11:30:10;4.00;;;2.67;;
3171;SDS011;1597;51.572;6.992;2022-07-01T11:32:40;3.27;;;2.40;;
3171;SDS011;1597;51.572;6.992;2022-07-01T11:35:17;3.17;;;2.87;;
3171;SDS011;1597;51.572;6.992;2022-07-01T11:38:23;7.20;;;2.20;;
3171;SDS011;1597;51.572;6.992;2022-07-01T11:41:10;5.20;;;2.60;;
3171;SDS011;1597;51.572;6.992;2022-07-01T11:43:50;11.87;;;3.37;;
3171;SDS011;1597;51.572;6.992;2022-07-01T11:46:17;5.47;;;3.73;;
3171;SDS011;1597;51.572;6.992;2022-07-01T11:48:44;6.17;;;3.70;;
3171;SDS011;1597;51.572;6.992;2022-07-01T11:51:20;6.00;;;3.40;;
3171;SDS011;1597;51.572;6.992;2022-07-01T11:53:48;4.43;;;3.10;;
3171;SDS011;1597;51.572;6.992;2022-07-01T11:56:18;4.73;;;2.70;;
3171;SDS011;1597;51.572;6.992;2022-07-01T11:59:04;3.93;;;3.13;;
3171;SDS011;1597;51.572;6.992;2022-07-01T12:01:31;7.10;;;3.03;;
3171;SDS011;1597;51.572;6.992;2022-07-01T12:04:03;3.23;;;2.83;;
3171;SDS011;1597;51.572;6.992;2022-07-01T12:06:32;6.87;;;3.90;;
3171;SDS011;1597;51.572;6.992;2022-07-01T12:09:00;2.90;;;2.37;;
3171;SDS011;1597;51.572;6.992;2022-07-01T12:11:28;3.43;;;2.47;;
3171;SDS011;1597;51.572;6.992;2022-07-01T12:13:55;12.27;;;3.40;;
3171;SDS011;1597;51.572;6.992;2022-07-01T12:16:22;3.60;;;2.50;;
3171;SDS011;1597;51.572;6.992;2022-07-01T12:18:56;7.20;;;3.07;;
3171;SDS011;1597;51.572;6.992;2022-07-01T12:21:28;2.30;;;2.10;;
3171;SDS011;1597;51.572;6.992;2022-07-01T12:24:05;2.73;;;2.27;;
3171;SDS011;1597;51.572;6.992;2022-07-01T12:26:46;3.40;;;1.80;;
3171;SDS011;1597;51.572;6.992;2022-07-01T12:32:12;4.30;;;1.70;;
3171;SDS011;1597;51.572;6.992;2022-07-01T12:34:42;4.47;;;1.63;;
3171;SDS011;1597;51.572;6.992;2022-07-01T12:37:16;2.53;;;1.50;;
3171;SDS011;1597;51.572;6.992;2022-07-01T12:39:52;7.07;;;1.70;;
3171;SDS011;1597;51.572;6.992;2022-07-01T12:42:22;3.30;;;1.33;;
3171;SDS011;1597;51.572;6.992;2022-07-01T12:45:06;3.43;;;2.00;;
3171;SDS011;1597;51.572;6.992;2022-07-01T12:47:42;4.57;;;1.83;;
3171;SDS011;1597;51.572;6.992;2022-07-01T12:53:08;1.70;;;1.40;;
3171;SDS011;1597;51.572;6.992;2022-07-01T12:55:40;1.60;;;1.30;;
3171;SDS011;1597;51.572;6.992;2022-07-01T12:58:09;1.43;;;1.33;;
3171;SDS011;1597;51.572;6.992;2022-07-01T13:00:41;2.10;;;1.73;;
3171;SDS011;1597;51.572;6.992;2022-07-01T13:03:10;2.80;;;1.73;;
3171;SDS011;1597;51.572;6.992;2022-07-01T13:05:37;3.27;;;1.63;;
3171;SDS011;1597;51.572;6.992;2022-07-01T13:08:04;2.87;;;1.43;;
3171;SDS011;1597;51.572;6.992;2022-07-01T13:10:32;4.43;;;2.20;;
3171;SDS011;1597;51.572;6.992;2022-07-01T13:12:58;3.27;;;2.77;;
3171;SDS011;1597;51.572;6.992;2022-07-01T13:15:24;3.00;;;1.60;;
3171;SDS011;1597;51.572;6.992;2022-07-01T13:17:50;3.27;;;1.77;;
3171;SDS011;1597;51.572;6.992;2022-07-01T13:20:16;4.33;;;1.60;;
3171;SDS011;1597;51.572;6.992;2022-07-01T13:22:45;4.40;;;1.80;;
3171;SDS011;1597;51.572;6.992;2022-07-01T13:25:11;2.40;;;1.17;;
3171;SDS011;1597;51.572;6.992;2022-07-01T13:27:40;4.53;;;1.57;;
3171;SDS011;1597;51.572;6.992;2022-07-01T13:30:08;10.50;;;2.83;;
3171;SDS011;1597;51.572;6.992;2022-07-01T13:32:35;1.80;;;1.33;;
3171;SDS011;1597;51.572;6.992;2022-07-01T13:35:04;3.03;;;1.27;;
3171;SDS011;1597;51.572;6.992;2022-07-01T13:37:32;4.40;;;1.20;;
3171;SDS011;1597;51.572;6.992;2022-07-01T13:39:58;2.00;;;1.20;;
3171;SDS011;1597;51.572;6.992;2022-07-01T13:42:24;1.97;;;1.00;;
3171;SDS011;1597;51.572;6.992;2022-07-01T13:44:50;7.53;;;6.83;;
3171;SDS011;1597;51.572;6.992;2022-07-01T13:47:17;3.10;;;1.73;;
3171;SDS011;1597;51.572;6.992;2022-07-01T13:49:43;3.30;;;1.50;;
3171;SDS011;1597;51.572;6.992;2022-07-01T13:52:11;8.63;;;1.60;;
3171;SDS011;1597;51.572;6.992;2022-07-01T13:54:40;3.83;;;1.60;;
3171;SDS011;1597;51.572;6.992;2022-07-01T13:57:13;9.43;;;2.30;;
3171;SDS011;1597;51.572;6.992;2022-07-01T13:59:39;1.93;;;1.30;;
3171;SDS011;1597;51.572;6.992;2022-07-01T14:02:09;3.43;;;1.10;;
3171;SDS011;1597;51.572;6.992;2022-07-01T14:04:37;2.03;;;1.50;;
3171;SDS011;1597;51.572;6.992;2022-07-01T14:07:03;1.70;;;1.60;;
3171;SDS011;1597;51.572;6.992;2022-07-01T14:09:30;3.30;;;1.30;;
3171;SDS011;1597;51.572;6.992;2022-07-01T14:11:57;2.10;;;1.33;;
3171;SDS011;1597;51.572;6.992;2022-07-01T14:14:23;1.30;;;1.20;;
3171;SDS011;1597;51.572;6.992;2022-07-01T14:16:50;2.20;;;1.47;;
3171;SDS011;1597;51.572;6.992;2022-07-01T14:19:16;2.30;;;1.57;;
3171;SDS011;1597;51.572;6.992;2022-07-01T14:21:42;4.97;;;2.70;;
3171;SDS011;1597;51.572;6.992;2022-07-01T14:24:08;4.40;;;1.73;;
3171;SDS011;1597;51.572;6.992;2022-07-01T14:26:33;2.80;;;1.30;;
3171;SDS011;1597;51.572;6.992;2022-07-01T14:28:59;3.10;;;1.00;;
3171;SDS011;1597;51.572;6.992;2022-07-01T14:31:25;2.00;;;1.23;;
3171;SDS011;1597;51.572;6.992;2022-07-01T14:33:51;7.30;;;5.00;;
3171;SDS011;1597;51.572;6.992;2022-07-01T14:36:17;4.97;;;1.30;;
3171;SDS011;1597;51.572;6.992;2022-07-01T14:38:43;3.50;;;1.30;;
3171;SDS011;1597;51.572;6.992;2022-07-01T14:41:09;2.63;;;1.23;;
3171;SDS011;1597;51.572;6.992;2022-07-01T14:43:35;4.43;;;1.77;;
3171;SDS011;1597;51.572;6.992;2022-07-01T14:46:03;2.87;;;1.63;;
3171;SDS011;1597;51.572;6.992;2022-07-01T14:48:34;3.50;;;1.07;;
3171;SDS011;1597;51.572;6.992;2022-07-01T14:51:03;1.40;;;1.17;;
3171;SDS011;1597;51.572;6.992;2022-07-01T14:53:30;2.23;;;1.87;;
3171;SDS011;1597;51.572;6.992;2022-07-01T14:55:56;1.37;;;1.23;;
3171;SDS011;1597;51.572;6.992;2022-07-01T14:58:22;3.27;;;1.23;;
3171;SDS011;1597;51.572;6.992;2022-07-01T15:00:48;4.80;;;1.43;;
3171;SDS011;1597;51.572;6.992;2022-07-01T15:03:14;3.27;;;1.23;;
3171;SDS011;1597;51.572;6.992;2022-07-01T15:05:43;3.70;;;1.57;;
3171;SDS011;1597;51.572;6.992;2022-07-01T15:08:09;2.07;;;1.87;;
3171;SDS011;1597;51.572;6.992;2022-07-01T15:10:35;2.53;;;1.37;;
3171;SDS011;1597;51.572;6.992;2022-07-01T15:13:01;4.17;;;1.77;;
3171;SDS011;1597;51.572;6.992;2022-07-01T15:15:27;3.97;;;2.03;;
3171;SDS011;1597;51.572;6.992;2022-07-01T15:17:53;1.20;;;1.10;;
3171;SDS011;1597;51.572;6.992;2022-07-01T15:20:19;1.90;;;1.43;;
3171;SDS011;1597;51.572;6.992;2022-07-01T15:22:46;8.13;;;1.90;;
3171;SDS011;1597;51.572;6.992;2022-07-01T15:25:15;1.60;;;1.10;;
3171;SDS011;1597;51.572;6.992;2022-07-01T15:27:44;2.50;;;1.63;;
3171;SDS011;1597;51.572;6.992;2022-07-01T15:30:10;6.03;;;2.30;;
3171;SDS011;1597;51.572;6.992;2022-07-01T15:32:36;2.47;;;1.37;;
3171;SDS011;1597;51.572;6.992;2022-07-01T15:35:02;3.70;;;1.43;;
3171;SDS011;1597;51.572;6.992;2022-07-01T15:37:29;3.67;;;1.80;;
3171;SDS011;1597;51.572;6.992;2022-07-01T15:39:57;10.53;;;5.13;;
3171;SDS011;1597;51.572;6.992;2022-07-01T15:42:24;4.10;;;1.80;;
3171;SDS011;1597;51.572;6.992;2022-07-01T15:44:51;4.47;;;2.93;;